Time;durP1;ratioP1;P1;durP2;ratioP2;P2;SDS_P1;SDS_P2;PMS_P1;PMS_P2;Temp;Humidity;BMP_temperature;BMP_pressure;BME280_temperature;BME280_humidity;BME280_pressure;Samples;Min_cycle;Max_cycle;Signal;HPM_P1;HPM_P2
2022/08/11 00:01:00;;;;;;;;;5.40;5.00;;;;;19.37;42.73;100523.75;5139566;27;8825;-62
2022/08/11 00:03:28;;;;;;;;;3.80;2.00;;;;;19.34;43.23;100521.38;5138976;27;8818;-61
2022/08/11 00:06:10;;;;;;;;;7.20;7.00;;;;;19.30;43.41;100520.00;5139618;27;8834;-61
2022/08/11 00:08:38;;;;;;;;;7.00;7.00;;;;;19.28;43.45;100523.88;5139751;27;8976;-61
2022/08/11 00:11:05;;;;;;;;;5.80;5.80;;;;;19.27;43.02;100519.50;5139238;27;8821;-61
2022/08/11 00:13:33;;;;;;;;;7.00;7.00;;;;;19.25;43.03;100516.94;5139101;27;8841;-61
2022/08/11 00:16:01;;;;;;;;;5.40;5.00;;;;;19.22;43.62;100527.22;5139329;27;9474;-61
2022/08/11 00:18:29;;;;;;;;;6.20;6.20;;;;;19.15;43.87;100527.00;5137440;27;8868;-61
2022/08/11 00:20:56;;;;;;;;;8.00;8.00;;;;;19.06;43.18;100525.25;5139094;27;8949;-61
2022/08/11 00:23:25;;;;;;;;;7.80;7.20;;;;;18.95;43.77;100525.56;5138896;27;8840;-61
2022/08/11 00:25:52;;;;;;;;;7.80;7.00;;;;;18.89;44.01;100530.75;5138865;27;8822;-62
2022/08/11 00:28:20;;;;;;;;;7.00;7.00;;;;;18.82;44.33;100525.13;5139573;27;8853;-62
2022/08/11 00:30:48;;;;;;;;;8.00;7.00;;;;;18.79;44.35;100530.88;5138120;27;8829;-61
2022/08/11 00:33:15;;;;;;;;;2.00;2.00;;;;;18.77;43.83;100532.03;5138591;27;8905;-61
2022/08/11 00:35:43;;;;;;;;;8.60;8.00;;;;;18.73;44.19;100526.09;5138249;27;8984;-61
2022/08/11 00:38:23;;;;;;;;;7.40;7.00;;;;;18.71;44.45;100527.25;5139101;27;8963;-61
2022/08/11 00:40:51;;;;;;;;;8.60;7.00;;;;;18.68;44.37;100520.31;5138816;27;8966;-61
2022/08/11 00:43:19;;;;;;;;;5.80;5.80;;;;;18.66;44.29;100529.63;5139061;27;8821;-62
2022/08/11 00:45:47;;;;;;;;;9.80;7.80;;;;;18.64;44.31;100529.75;5138487;27;8855;-62
2022/08/11 00:48:15;;;;;;;;;8.40;7.20;;;;;18.58;44.40;100533.09;5138697;27;8952;-61
2022/08/11 00:50:42;;;;;;;;;9.80;8.60;;;;;18.49;44.46;100525.94;5138293;27;8943;-61
2022/08/11 00:53:11;;;;;;;;;7.00;7.00;;;;;18.42;44.96;100526.72;5120111;27;8944;-61
2022/08/11 00:55:39;;;;;;;;;8.20;7.00;;;;;18.35;44.41;100536.44;5138225;27;8838;-62
2022/08/11 00:58:06;;;;;;;;;7.20;7.20;;;;;18.27;44.78;100523.72;5138656;27;8821;-61
2022/08/11 01:00:34;;;;;;;;;8.40;6.80;;;;;18.24;45.06;100531.28;5137991;27;8822;-61
2022/08/11 01:03:02;;;;;;;;;9.60;8.20;;;;;18.20;45.01;100529.88;5138001;27;8854;-62
2022/08/11 01:05:30;;;;;;;;;8.00;8.00;;;;;18.16;44.91;100526.69;5138466;27;8992;-63
2022/08/11 01:07:58;;;;;;;;;8.20;8.20;;;;;18.12;45.52;100525.28;5137422;27;8829;-63
2022/08/11 01:10:29;;;;;;;;;6.80;6.80;;;;;18.08;45.65;100529.28;5137930;27;8960;-62
2022/08/11 01:12:57;;;;;;;;;9.20;9.00;;;;;18.04;45.49;100522.53;5138167;27;8830;-63
2022/08/11 01:15:25;;;;;;;;;9.80;7.00;;;;;18.00;45.37;100521.13;5137484;27;8822;-64
2022/08/11 01:17:53;;;;;;;;;9.50;9.00;;;;;17.96;45.52;100522.44;5137414;27;8830;-62
2022/08/11 01:20:21;;;;;;;;;8.00;7.00;;;;;17.93;45.79;100522.75;5137722;27;8841;-63
2022/08/11 01:23:08;;;;;;;;;7.00;7.00;;;;;17.89;46.16;100513.28;5137959;27;8858;-62
2022/08/11 01:25:43;;;;;;;;;7.80;7.40;;;;;17.84;45.89;100518.28;5137519;27;8845;-63
2022/08/11 01:28:23;;;;;;;;;8.50;8.00;;;;;17.81;46.18;100521.28;5137048;27;8822;-62
2022/08/11 01:30:51;;;;;;;;;6.00;5.60;;;;;17.79;45.38;100526.00;5137981;27;8829;-63
2022/08/11 01:33:21;;;;;;;;;6.80;6.80;;;;;17.76;45.97;100523.59;5137777;27;8814;-62
2022/08/11 01:35:48;;;;;;;;;8.40;7.40;;;;;17.75;46.16;100527.28;5137437;27;8886;-63
2022/08/11 01:38:16;;;;;;;;;8.20;7.00;;;;;17.75;45.86;100526.47;5137655;27;8822;-63
2022/08/11 01:40:44;;;;;;;;;9.20;9.20;;;;;17.73;46.27;100523.06;5137665;27;8841;-63
2022/08/11 01:45:57;;;;;;;;;9.40;7.40;;;;;17.67;45.89;100516.44;5137278;27;8870;-63
2022/08/11 01:48:25;;;;;;;;;6.50;6.25;;;;;17.63;46.32;100520.41;5137377;27;8829;-62
2022/08/11 01:50:52;;;;;;;;;9.60;9.60;;;;;17.60;46.35;100520.75;5136932;27;8850;-62
2022/08/11 01:53:20;;;;;;;;;12.00;9.50;;;;;17.56;45.78;100530.13;5137764;27;9543;-62
2022/08/11 01:55:48;;;;;;;;;5.50;5.50;;;;;17.52;46.31;100520.66;5136853;27;8833;-62
2022/08/11 01:58:15;;;;;;;;;7.25;6.50;;;;;17.49;46.24;100529.06;5137565;27;8822;-63
2022/08/11 02:00:43;;;;;;;;;9.50;9.50;;;;;17.46;46.72;100515.03;5137021;27;8860;-63
2022/08/11 02:03:11;;;;;;;;;12.25;9.50;;;;;17.42;46.63;100525.25;5137003;27;8830;-62
2022/08/11 02:05:39;;;;;;;;;11.50;9.00;;;;;17.42;46.55;100532.47;5137059;27;8992;-62
2022/08/11 02:08:06;;;;;;;;;10.50;9.25;;;;;17.40;46.40;100535.31;5137042;27;8817;-64
2022/08/11 02:13:23;;;;;;;;;9.75;9.75;;;;;17.35;46.68;100528.66;5136947;27;8917;-63
2022/08/11 02:16:03;;;;;;;;;8.50;7.00;;;;;17.30;47.12;100529.13;5136739;27;8976;-63
2022/08/11 02:23:38;;;;;;;;;10.00;9.75;;;;;17.27;46.98;100532.13;5137150;27;9611;-62
2022/08/11 02:24:04;;;;;;;;;8.75;8.75;;;;;17.17;47.29;100535.84;5137005;27;8852;-63
2022/08/11 02:26:34;;;;;;;;;9.00;7.00;;;;;17.13;47.48;100535.31;5136976;27;8879;-63
2022/08/11 02:29:02;;;;;;;;;9.00;7.00;;;;;17.10;47.22;100546.34;5137025;27;8833;-62
2022/08/11 02:34:36;;;;;;;;;11.00;9.75;;;;;17.04;47.62;100538.03;5135801;27;8853;-62
2022/08/11 02:37:04;;;;;;;;;11.50;10.00;;;;;16.99;47.61;100535.78;5136421;27;8876;-63
2022/08/11 02:39:31;;;;;;;;;9.75;9.50;;;;;16.94;47.35;100523.78;5136450;27;8872;-62
2022/08/11 02:45:02;;;;;;;;;9.75;7.00;;;;;16.86;47.77;100521.00;5136364;27;8822;-63
2022/08/11 02:47:30;;;;;;;;;9.25;9.00;;;;;16.83;47.73;100524.81;5136608;27;8856;-62
2022/08/11 02:49:56;;;;;;;;;12.00;12.00;;;;;16.79;48.11;100526.09;5135720;27;8837;-62
2022/08/11 02:52:33;;;;;;;;;6.75;6.50;;;;;16.74;47.65;100530.22;5136640;27;8923;-63
2022/08/11 02:55:01;;;;;;;;;9.50;9.00;;;;;16.68;48.00;100526.28;5136275;27;8822;-63
2022/08/11 02:57:29;;;;;;;;;10.00;9.75;;;;;16.65;48.32;100523.88;5136143;27;8930;-62
2022/08/11 02:59:56;;;;;;;;;8.00;7.00;;;;;16.62;47.93;100526.88;5136384;27;8829;-62
2022/08/11 03:02:26;;;;;;;;;10.50;9.50;;;;;16.61;48.02;100529.69;5136049;27;8944;-63
2022/08/11 03:04:54;;;;;;;;;12.50;12.00;;;;;16.59;48.34;100532.53;5136262;27;8906;-63
2022/08/11 03:07:22;;;;;;;;;13.25;13.25;;;;;16.57;48.34;100531.81;5136443;27;8830;-62
2022/08/11 03:09:55;;;;;;;;;9.25;9.00;;;;;16.55;47.72;100536.50;5136207;27;8906;-62
2022/08/11 03:17:53;;;;;;;;;7.00;6.75;;;;;16.60;47.91;100534.22;5136200;27;8885;-63
2022/08/11 03:20:21;;;;;;;;;9.50;9.00;;;;;16.60;48.50;100542.31;5136048;27;8964;-62
2022/08/11 03:22:49;;;;;;;;;11.25;10.25;;;;;16.58;48.19;100530.84;5136134;27;8826;-62
2022/08/11 03:25:17;;;;;;;;;9.50;9.00;;;;;16.57;48.10;100536.38;5136201;27;8960;-63
2022/08/11 03:27:44;;;;;;;;;12.00;10.00;;;;;16.54;48.60;100540.19;5136077;27;8822;-62
2022/08/11 03:30:12;;;;;;;;;9.50;9.25;;;;;16.53;48.09;100534.94;5135890;27;8818;-62
2022/08/11 03:32:40;;;;;;;;;11.00;9.00;;;;;16.49;48.52;100533.56;5136034;27;8833;-63
2022/08/11 03:35:06;;;;;;;;;12.75;12.75;;;;;16.45;48.61;100538.38;5135369;27;8952;-62
2022/08/11 03:37:50;;;;;;;;;15.25;11.50;;;;;16.41;48.78;100536.94;5135790;27;8848;-62
2022/08/11 03:41:41;;;;;;;;;10.00;9.00;;;;;16.37;48.58;100534.69;5136105;27;9491;-63
2022/08/11 03:43:06;;;;;;;;;11.50;9.25;;;;;16.31;48.69;100544.16;5135728;27;8818;-62
2022/08/11 03:45:35;;;;;;;;;12.25;12.25;;;;;16.26;49.12;100540.22;5135675;27;8841;-62
2022/08/11 03:48:07;;;;;;;;;7.00;7.00;;;;;16.21;48.61;100539.78;5135583;27;8888;-62
2022/08/11 03:50:35;;;;;;;;;9.75;9.25;;;;;16.17;48.96;100546.47;5135329;27;8940;-62
2022/08/11 03:53:02;;;;;;;;;10.00;9.75;;;;;16.12;49.26;100542.47;5138371;27;8822;-62
2022/08/11 03:55:31;;;;;;;;;9.00;9.00;;;;;16.08;48.90;100538.38;5139090;27;8944;-62
2022/08/11 03:57:59;;;;;;;;;11.50;9.75;;;;;16.03;49.28;100529.91;5139608;27;8830;-61
2022/08/11 04:00:26;;;;;;;;;10.75;10.50;;;;;16.00;49.53;100532.88;5139178;27;8840;-62
2022/08/11 04:02:54;;;;;;;;;11.00;10.00;;;;;15.95;49.11;100535.13;5139440;27;8822;-62
2022/08/11 04:05:23;;;;;;;;;12.50;10.25;;;;;15.91;49.10;100533.75;5138787;27;8833;-61
2022/08/11 04:07:51;;;;;;;;;7.00;6.50;;;;;15.90;49.68;100537.38;5138945;27;8822;-62
2022/08/11 04:10:19;;;;;;;;;11.00;9.75;;;;;15.88;49.70;100542.06;5138846;27;8906;-62
2022/08/11 04:12:46;;;;;;;;;9.75;9.75;;;;;15.87;49.24;100532.31;5139171;27;8822;-62
2022/08/11 04:17:56;;;;;;;;;12.00;10.25;;;;;15.89;49.71;100528.50;5125349;27;8845;-62
2022/08/11 04:20:24;;;;;;;;;12.00;11.00;;;;;15.92;49.74;100530.06;5138398;27;9531;-62
2022/08/11 04:22:53;;;;;;;;;9.25;9.00;;;;;15.92;49.44;100532.75;5136600;27;9613;-62
2022/08/11 04:25:21;;;;;;;;;10.50;9.50;;;;;15.91;49.13;100526.50;5137835;27;8844;-62
2022/08/11 04:27:48;;;;;;;;;9.50;9.25;;;;;15.91;49.57;100529.19;5137423;27;8961;-62
2022/08/11 04:30:16;;;;;;;;;12.00;11.50;;;;;15.93;49.27;100532.56;5137088;27;8845;-62
2022/08/11 04:32:45;;;;;;;;;12.75;12.00;;;;;15.97;49.68;100530.47;5137065;27;8858;-63
2022/08/11 04:35:14;;;;;;;;;13.00;11.50;;;;;16.00;49.51;100536.41;5137045;27;8834;-63
2022/08/11 04:37:41;;;;;;;;;9.75;9.00;;;;;16.03;48.99;100533.44;5138532;27;9509;-62
2022/08/11 04:40:10;;;;;;;;;11.00;11.00;;;;;16.06;48.97;100535.84;5138119;27;8856;-62
2022/08/11 04:45:23;;;;;;;;;11.50;11.00;;;;;16.11;49.36;100536.28;5136790;27;8864;-62
2022/08/11 05:01:56;;;;;;;;;12.00;11.00;;;;;16.24;49.32;100534.97;5136738;27;8826;-65
2022/08/11 05:07:09;;;;;;;;;9.50;9.50;;;;;16.38;49.16;100544.47;5136792;27;8825;-63
2022/08/11 05:09:37;;;;;;;;;10.00;10.00;;;;;16.45;48.80;100538.38;5137373;27;8834;-62
2022/08/11 05:12:05;;;;;;;;;9.00;7.50;;;;;16.57;49.06;100528.31;5136878;27;8837;-62
2022/08/11 05:36:56;;;;;;;;;7.50;7.00;;;;;17.89;47.25;100531.28;5136481;27;8854;-62
2022/08/11 05:56:55;;;;;;;;;11.20;9.60;;;;;18.67;45.84;100536.69;5133466;27;8864;-63
2022/08/11 05:59:24;;;;;;;;;15.00;12.40;;;;;18.76;46.20;100546.53;5132148;27;8830;-62
2022/08/11 06:01:52;;;;;;;;;11.20;11.20;;;;;18.84;45.94;100543.88;5133054;27;9192;-62
2022/08/11 06:04:19;;;;;;;;;9.60;9.00;;;;;18.95;45.54;100536.34;5132165;27;8837;-62
2022/08/11 06:06:49;;;;;;;;;9.40;9.20;;;;;19.06;45.32;100541.47;5131937;27;8915;-63
2022/08/11 06:09:17;;;;;;;;;10.60;9.80;;;;;19.19;45.74;100541.03;5132188;27;8983;-62
2022/08/11 06:11:45;;;;;;;;;8.40;8.20;;;;;19.35;45.13;100533.03;5132240;27;8825;-63
2022/08/11 06:14:14;;;;;;;;;11.20;11.20;;;;;19.55;44.96;100527.19;5131073;27;8822;-62
2022/08/11 06:16:42;;;;;;;;;10.00;10.00;;;;;19.78;44.30;100528.25;5131320;27;8854;-62
2022/08/11 06:19:10;;;;;;;;;8.00;7.00;;;;;20.00;44.08;100533.00;5132188;27;8960;-62
2022/08/11 06:21:37;;;;;;;;;7.80;7.60;;;;;20.21;43.87;100530.69;5133619;27;9000;-62
2022/08/11 06:24:06;;;;;;;;;7.60;7.60;;;;;20.40;43.96;100532.22;5132944;27;8841;-62
2022/08/11 06:26:34;;;;;;;;;10.20;10.20;;;;;20.57;43.34;100529.31;5133141;27;8822;-62
2022/08/11 06:29:21;;;;;;;;;12.80;12.60;;;;;20.77;43.34;100526.06;5133484;27;8833;-62
2022/08/11 06:32:04;;;;;;;;;2.00;2.00;;;;;20.95;43.38;100521.28;5133596;27;8829;-62
2022/08/11 06:34:32;;;;;;;;;10.40;10.40;;;;;21.10;43.14;100529.56;5134593;27;8979;-62
2022/08/11 06:37:00;;;;;;;;;11.00;10.60;;;;;21.26;42.82;100516.78;5134130;27;8918;-62
2022/08/11 06:39:28;;;;;;;;;11.00;11.00;;;;;21.46;42.59;100517.19;5133526;27;8844;-62
2022/08/11 06:41:56;;;;;;;;;8.20;8.20;;;;;21.63;42.27;100514.22;5133388;27;8821;-62
2022/08/11 06:44:24;;;;;;;;;10.20;9.00;;;;;21.80;42.09;100520.41;5133722;27;8956;-63
2022/08/11 06:46:53;;;;;;;;;10.20;8.60;;;;;21.96;42.27;100502.16;5132848;27;8858;-62
2022/08/11 06:52:07;;;;;;;;;9.20;9.20;;;;;22.32;41.74;100510.53;5131525;27;8829;-62
2022/08/11 06:54:56;;;;;;;;;7.00;7.00;;;;;22.49;41.43;100510.22;5132797;27;8864;-62
2022/08/11 07:00:29;;;;;;;;;14.20;12.00;;;;;22.80;41.55;100499.19;5106681;27;8857;-62
2022/08/11 07:03:00;;;;;;;;;8.00;8.00;;;;;22.96;40.92;100512.59;5132662;27;8834;-62
2022/08/11 07:05:28;;;;;;;;;12.20;12.00;;;;;23.10;40.90;100509.03;5131558;27;8838;-62
2022/08/11 07:16:33;;;;;;;;;13.60;11.40;;;;;23.66;40.70;100511.06;5132724;27;8837;-62
2022/08/11 07:30:14;;;;;;;;;9.20;8.80;;;;;24.46;39.92;100502.47;5137756;27;8837;-62
2022/08/11 07:32:42;;;;;;;;;10.80;10.80;;;;;24.60;39.83;100504.28;5136665;27;9685;-63
2022/08/11 07:35:12;;;;;;;;;10.00;9.60;;;;;24.75;39.68;100496.84;5136556;27;8846;-62
2022/08/11 07:37:40;;;;;;;;;9.00;8.80;;;;;24.90;39.48;100499.47;5135132;27;8876;-62
2022/08/11 07:40:07;;;;;;;;;9.80;9.60;;;;;25.06;39.16;100505.44;5134443;27;9802;-63
2022/08/11 07:42:36;;;;;;;;;10.00;8.40;;;;;25.22;39.05;100509.69;5135179;27;8837;-62
2022/08/11 07:53:24;;;;;;;;;9.80;9.80;;;;;25.80;38.73;100494.44;5133391;27;8845;-62
2022/08/11 07:55:52;;;;;;;;;10.40;10.20;;;;;25.91;38.62;100493.88;5133158;27;8844;-62
2022/08/11 08:17:55;;;;;;;;;9.20;8.20;;;;;26.89;37.18;100493.91;5133467;27;8908;-62
2022/08/11 08:20:44;;;;;;;;;11.80;11.60;;;;;27.03;37.41;100495.56;5135189;27;9569;-62
2022/08/11 08:23:11;;;;;;;;;12.00;11.60;;;;;27.15;37.03;100497.44;5134817;27;9507;-62
2022/08/11 08:25:39;;;;;;;;;9.80;9.80;;;;;27.27;36.86;100494.88;5135154;27;8845;-63
2022/08/11 08:28:07;;;;;;;;;12.00;12.00;;;;;27.42;37.14;100498.19;5134605;27;8879;-62
2022/08/11 08:30:46;;;;;;;;;13.00;12.00;;;;;27.56;36.55;100497.06;5135074;27;8837;-62
2022/08/11 08:33:14;;;;;;;;;10.60;10.40;;;;;27.69;36.57;100495.09;5135069;27;8865;-62
2022/08/11 08:35:43;;;;;;;;;9.40;9.20;;;;;27.83;36.54;100491.28;5134667;27;8830;-62
2022/08/11 08:38:22;;;;;;;;;9.60;9.60;;;;;27.99;36.40;100496.22;5135182;27;8833;-62
2022/08/11 08:40:50;;;;;;;;;11.00;10.60;;;;;28.13;35.78;100497.81;5134497;27;9502;-63
2022/08/11 08:43:18;;;;;;;;;11.00;10.20;;;;;28.25;35.50;100493.31;5133699;27;8848;-62
2022/08/11 08:45:46;;;;;;;;;13.60;12.20;;;;;28.36;35.87;100500.00;5133933;27;8837;-62
2022/08/11 08:48:13;;;;;;;;;11.40;10.80;;;;;28.44;35.58;100492.34;5134635;27;8996;-62
2022/08/11 08:53:31;;;;;;;;;8.80;8.80;;;;;28.59;35.81;100498.31;5133883;27;8844;-62
2022/08/11 08:55:59;;;;;;;;;9.20;9.00;;;;;28.69;35.66;100493.19;5133980;27;8953;-63
2022/08/11 08:58:27;;;;;;;;;10.20;10.20;;;;;28.82;34.98;100493.03;5133445;27;8845;-62
2022/08/11 09:00:54;;;;;;;;;7.00;7.00;;;;;28.97;35.37;100485.31;5133601;27;8813;-63
2022/08/11 09:03:23;;;;;;;;;10.00;10.00;;;;;29.13;34.46;100483.88;5133432;27;8939;-62
2022/08/11 09:06:11;;;;;;;;;9.60;9.40;;;;;29.28;34.34;100481.59;5135129;27;8846;-62
2022/08/11 09:08:39;;;;;;;;;8.60;8.60;;;;;29.39;34.28;100481.66;5134221;27;8825;-63
2022/08/11 09:13:52;;;;;;;;;10.20;10.00;;;;;29.56;34.12;100477.25;5134291;27;8845;-62
2022/08/11 09:16:33;;;;;;;;;10.40;10.20;;;;;29.71;33.85;100483.16;5133826;27;9303;-63
2022/08/11 09:19:01;;;;;;;;;10.40;10.00;;;;;29.80;33.45;100479.00;5135358;27;8956;-62
2022/08/11 09:21:30;;;;;;;;;10.00;9.80;;;;;29.87;33.25;100478.94;5134887;27;8852;-63
2022/08/11 09:27:02;;;;;;;;;12.00;12.00;;;;;30.07;33.27;100477.59;5133609;27;9331;-63
2022/08/11 09:29:30;;;;;;;;;9.80;9.80;;;;;30.14;33.15;100475.59;5131357;27;8822;-63
2022/08/11 09:31:58;;;;;;;;;10.80;10.00;;;;;30.25;32.33;100471.19;5130077;27;8837;-62
2022/08/11 09:34:26;;;;;;;;;9.20;9.00;;;;;30.29;32.43;100477.88;5130861;27;8955;-62
2022/08/11 09:44:45;;;;;;;;;9.80;9.60;;;;;30.71;31.98;100471.25;5129890;27;8836;-63
2022/08/11 09:45:12;;;;;;;;;9.20;9.20;;;;;30.96;31.87;100465.25;5132015;27;8834;-62
2022/08/11 09:47:40;;;;;;;;;12.00;11.80;;;;;31.29;31.17;100464.63;5132762;27;8872;-62
2022/08/11 09:50:08;;;;;;;;;9.20;9.20;;;;;31.69;30.71;100468.19;5131803;27;8869;-62
2022/08/11 09:52:36;;;;;;;;;13.60;13.00;;;;;32.20;30.04;100466.19;5133493;27;8984;-62
2022/08/11 09:55:05;;;;;;;;;10.00;10.00;;;;;32.68;29.91;100457.31;5133821;27;8826;-62
2022/08/11 10:00:19;;;;;;;;;10.20;9.80;;;;;33.58;28.50;100448.41;5134275;27;8852;-62
2022/08/11 10:02:47;;;;;;;;;10.00;10.00;;;;;34.02;28.07;100451.94;5133005;27;9741;-62
2022/08/11 10:08:06;;;;;;;;;12.20;11.00;;;;;34.89;28.24;100448.53;5076265;27;8848;-62
2022/08/11 10:10:33;;;;;;;;;9.00;9.00;;;;;35.32;27.32;100451.03;5132643;27;8814;-63
2022/08/11 10:13:03;;;;;;;;;9.80;9.60;;;;;35.74;27.32;100448.16;5132394;27;9519;-62
2022/08/11 10:15:37;;;;;;;;;10.80;10.80;;;;;36.02;26.59;100444.88;5131806;27;8933;-62
2022/08/11 10:20:50;;;;;;;;;9.20;9.20;;;;;36.30;25.62;100448.81;5133566;27;9211;-63
2022/08/11 10:34:45;;;;;;;;;9.80;9.80;;;;;37.33;24.85;100430.59;5132087;27;8849;-63
2022/08/11 10:37:24;;;;;;;;;9.80;9.40;;;;;37.78;23.88;100424.81;5131755;27;8854;-63
2022/08/11 10:40:14;;;;;;;;;10.20;10.20;;;;;37.98;23.92;100433.91;5131412;27;8880;-62
2022/08/11 10:48:13;;;;;;;;;11.00;11.00;;;;;38.32;23.41;100434.75;5129526;27;9563;-63
2022/08/11 10:59:00;;;;;;;;;9.80;9.80;;;;;39.45;22.71;100409.88;5131431;27;8841;-62
2022/08/11 11:01:30;;;;;;;;;11.00;10.00;;;;;39.83;22.28;100409.63;5133815;27;9159;-63
2022/08/11 11:03:58;;;;;;;;;10.60;10.20;;;;;40.14;22.77;100407.22;5139451;27;8886;-63
2022/08/11 11:06:26;;;;;;;;;9.00;8.00;;;;;40.39;21.85;100402.00;5138817;27;9591;-63
2022/08/11 11:08:56;;;;;;;;;10.00;10.00;;;;;40.55;21.85;100397.03;5138977;27;8976;-63
2022/08/11 11:19:46;;;;;;;;;10.00;9.80;;;;;40.90;21.34;100388.78;5138276;27;8926;-63
2022/08/11 11:24:59;;;;;;;;;10.00;10.00;;;;;41.11;21.59;100378.88;5138477;27;8846;-62
2022/08/11 11:27:27;;;;;;;;;11.00;10.60;;;;;41.24;20.89;100378.00;5137922;27;8834;-63
2022/08/11 11:29:55;;;;;;;;;12.00;10.40;;;;;41.40;21.59;100379.34;5136959;27;9708;-62
2022/08/11 11:32:22;;;;;;;;;12.40;11.80;;;;;41.58;20.98;100372.81;5137527;27;9507;-63
2022/08/11 11:34:51;;;;;;;;;9.60;9.40;;;;;41.72;20.94;100376.41;5137439;27;8838;-63
2022/08/11 11:37:20;;;;;;;;;11.60;10.60;;;;;41.82;20.67;100372.53;5137832;27;9310;-63
2022/08/11 11:39:48;;;;;;;;;7.60;7.60;;;;;41.88;21.09;100383.31;5138243;27;8975;-64
2022/08/11 11:42:16;;;;;;;;;10.80;9.80;;;;;41.91;20.79;100368.66;5137578;27;8863;-63
2022/08/11 11:44:44;;;;;;;;;10.60;9.40;;;;;42.11;20.68;100366.16;5136849;27;8826;-62
2022/08/11 11:47:12;;;;;;;;;12.00;11.00;;;;;42.33;20.50;100357.78;5138323;27;9645;-63
2022/08/11 11:49:39;;;;;;;;;10.00;10.00;;;;;42.58;19.76;100350.69;5138815;27;8989;-63
2022/08/11 11:52:07;;;;;;;;;10.00;10.00;;;;;42.67;19.93;100349.59;5138812;27;9547;-63
2022/08/11 11:54:35;;;;;;;;;8.00;8.00;;;;;42.79;19.93;100343.38;5138759;27;8833;-62
2022/08/11 12:01:14;;;;;;;;;12.00;11.80;;;;;42.94;20.03;100343.75;5137552;27;8837;-63
2022/08/11 12:02:42;;;;;;;;;10.80;9.80;;;;;43.23;19.85;100340.38;5137322;27;8937;-61
2022/08/11 12:05:10;;;;;;;;;11.40;11.40;;;;;43.47;19.44;100335.16;5137484;27;9551;-60
2022/08/11 12:10:36;;;;;;;;;11.20;11.20;;;;;43.82;19.49;100340.47;5137346;27;9607;-60
2022/08/11 12:15:50;;;;;;;;;10.60;10.00;;;;;43.89;19.49;100334.38;5134940;27;8996;-63
2022/08/11 12:18:37;;;;;;;;;11.40;10.80;;;;;43.83;18.90;100330.09;5133820;27;8846;-62
2022/08/11 12:21:05;;;;;;;;;7.40;7.00;;;;;43.82;19.61;100331.25;5135160;27;8834;-63
2022/08/11 12:29:03;;;;;;;;;10.80;10.20;;;;;43.92;19.10;100322.47;5136848;27;9178;-63
2022/08/11 12:31:31;;;;;;;;;12.00;12.00;;;;;43.85;19.10;100317.34;5136699;27;8844;-62
2022/08/11 12:33:59;;;;;;;;;10.40;9.60;;;;;43.69;19.17;100318.19;5136392;27;8853;-62
2022/08/11 12:36:27;;;;;;;;;9.00;9.00;;;;;43.64;19.41;100309.88;5135012;27;8838;-63
2022/08/11 12:38:55;;;;;;;;;9.00;9.00;;;;;43.67;19.08;100304.44;5136466;27;8956;-62
2022/08/11 12:46:53;;;;;;;;;9.40;9.40;;;;;43.27;19.35;100302.09;5134713;27;8938;-62
2022/08/11 12:52:18;;;;;;;;;10.40;10.00;;;;;42.61;19.80;100294.00;5071284;28;9007;-62
2022/08/11 12:54:45;;;;;;;;;13.00;11.80;;;;;42.28;20.21;100292.63;5119206;27;8917;-63
2022/08/11 13:05:34;;;;;;;;;10.00;10.00;;;;;40.99;21.48;100280.69;5135313;27;8841;-62
2022/08/11 13:08:12;;;;;;;;;10.20;9.80;;;;;40.72;21.14;100283.47;5134691;27;9535;-63
2022/08/11 13:13:26;;;;;;;;;11.20;10.20;;;;;39.65;21.75;100279.25;5133416;27;8845;-62
2022/08/11 13:16:14;;;;;;;;;9.00;9.00;;;;;39.16;22.13;100270.53;5133779;27;9349;-63
2022/08/11 13:18:42;;;;;;;;;10.00;10.00;;;;;38.75;22.61;100271.38;5134161;27;8829;-63
2022/08/11 13:21:10;;;;;;;;;9.60;9.60;;;;;38.36;22.86;100265.94;5133450;27;9172;-62
2022/08/11 13:23:46;;;;;;;;;9.00;8.00;;;;;38.08;23.05;100255.66;5133307;27;8837;-62
2022/08/11 13:26:28;;;;;;;;;9.80;9.80;;;;;37.90;22.91;100263.88;5134723;27;8850;-62
2022/08/11 13:29:15;;;;;;;;;12.00;11.20;;;;;37.62;23.17;100262.75;5132892;27;8837;-62
2022/08/11 13:31:42;;;;;;;;;10.80;10.40;;;;;37.50;22.92;100259.53;5133680;27;9304;-62
2022/08/11 13:34:10;;;;;;;;;10.20;10.20;;;;;37.45;23.44;100258.69;5132782;27;8849;-62
2022/08/11 13:36:38;;;;;;;;;11.80;11.60;;;;;37.39;23.32;100246.78;5132198;27;9511;-63
2022/08/11 13:39:06;;;;;;;;;9.60;9.00;;;;;37.28;22.38;100256.31;5133361;27;8833;-62
2022/08/11 13:41:42;;;;;;;;;14.60;13.40;;;;;37.19;23.15;100252.50;5131922;27;8834;-62
2022/08/11 13:44:11;;;;;;;;;12.60;12.60;;;;;37.09;22.72;100255.31;5133452;27;9482;-62
2022/08/11 13:46:42;;;;;;;;;12.40;12.40;;;;;37.11;22.44;100255.84;5133977;27;8983;-62
2022/08/11 13:49:10;;;;;;;;;12.00;11.00;;;;;37.18;22.86;100255.56;5135246;27;9023;-63
2022/08/11 13:51:38;;;;;;;;;11.60;11.00;;;;;37.31;22.28;100255.72;5133835;27;8813;-62
2022/08/11 13:54:07;;;;;;;;;11.60;10.80;;;;;37.47;22.15;100243.38;5131918;27;8917;-62
2022/08/11 13:56:35;;;;;;;;;11.80;11.80;;;;;37.65;22.24;100253.84;5132965;27;9569;-62
2022/08/11 13:59:03;;;;;;;;;9.60;9.60;;;;;37.75;21.80;100245.38;5134393;27;8837;-62
2022/08/11 14:01:31;;;;;;;;;11.00;11.00;;;;;37.79;21.58;100232.53;5133561;27;8817;-63
2022/08/11 14:04:19;;;;;;;;;11.60;10.00;;;;;37.69;21.88;100245.75;5132797;27;8850;-63
2022/08/11 14:06:58;;;;;;;;;13.20;12.00;;;;;37.61;22.08;100233.28;5133106;27;8844;-62
2022/08/11 14:09:26;;;;;;;;;10.60;9.60;;;;;37.44;22.44;100232.84;5132134;27;8829;-63
2022/08/11 14:14:50;;;;;;;;;11.80;11.00;;;;;37.11;22.69;100239.19;5089625;27;8945;-62
2022/08/11 14:17:18;;;;;;;;;12.20;11.00;;;;;36.91;22.80;100230.13;5132958;27;8873;-62
2022/08/11 14:20:05;;;;;;;;;11.80;11.80;;;;;36.80;22.34;100231.31;5132786;27;8838;-63
2022/08/11 14:22:52;;;;;;;;;10.20;10.20;;;;;36.72;22.45;100229.94;5133448;27;8861;-66
2022/08/11 14:25:20;;;;;;;;;11.40;11.40;;;;;36.61;22.55;100230.28;5133302;27;8876;-63
2022/08/11 14:28:08;;;;;;;;;11.60;11.60;;;;;36.61;22.62;100236.66;5131826;27;8856;-63
2022/08/11 14:30:55;;;;;;;;;12.00;11.80;;;;;36.69;22.43;100230.53;5133203;27;8880;-62
2022/08/11 14:33:28;;;;;;;;;12.00;11.40;;;;;36.85;22.77;100232.09;5132738;27;8848;-62
2022/08/11 14:36:16;;;;;;;;;12.00;11.40;;;;;36.94;22.21;100227.59;5129832;27;8857;-62
2022/08/11 14:38:43;;;;;;;;;11.20;10.00;;;;;37.00;21.56;100226.44;5131846;27;8842;-63
2022/08/11 14:49:27;;;;;;;;;12.40;12.00;;;;;37.25;21.74;100217.16;5132832;27;8971;-63
2022/08/11 14:51:55;;;;;;;;;12.80;12.80;;;;;37.41;21.58;100225.06;5133340;27;8914;-63
2022/08/11 14:57:05;;;;;;;;;11.80;11.60;;;;;37.86;20.96;100213.56;5098595;27;8845;-63
2022/08/11 14:59:33;;;;;;;;;11.00;11.00;;;;;37.91;20.95;100210.72;5132356;27;9004;-63
2022/08/11 15:04:45;;;;;;;;;12.00;12.00;;;;;37.93;21.03;100213.22;5133334;27;8957;-62
2022/08/11 15:07:13;;;;;;;;;12.00;11.60;;;;;38.03;20.66;100207.56;5132623;27;8845;-63
2022/08/11 15:09:44;;;;;;;;;12.20;11.60;;;;;38.35;20.52;100205.81;5132885;27;8825;-63
2022/08/11 15:12:32;;;;;;;;;12.20;11.60;;;;;38.93;20.18;100204.53;5133442;27;8841;-63
2022/08/11 15:17:53;;;;;;;;;11.60;11.40;;;;;39.83;19.24;100194.72;5096456;27;9000;-62
2022/08/11 15:25:51;;;;;;;;;11.00;11.00;;;;;39.89;19.08;100192.66;5130913;27;9501;-63
2022/08/11 15:39:21;;;;;;;;;11.20;11.00;;;;;39.19;19.34;100183.47;5133007;27;8960;-62
2022/08/11 15:47:30;;;;;;;;;13.00;13.00;;;;;38.91;19.57;100181.69;5133157;27;8849;-64
2022/08/11 15:50:04;;;;;;;;;12.40;12.40;;;;;39.07;19.57;100174.75;5136862;27;8818;-62
2022/08/11 15:52:40;;;;;;;;;9.20;9.20;;;;;39.37;19.15;100184.63;5135729;27;8876;-63
2022/08/11 15:55:07;;;;;;;;;13.00;13.00;;;;;39.53;19.19;100170.13;5136661;27;8944;-62
2022/08/11 16:06:12;;;;;;;;;13.60;13.00;;;;;39.93;19.27;100166.59;5134544;27;9518;-63
2022/08/11 16:08:39;;;;;;;;;12.40;12.40;;;;;39.87;19.25;100162.25;5134270;27;8829;-63
2022/08/11 16:11:07;;;;;;;;;10.40;10.20;;;;;39.97;19.19;100170.41;5136259;27;8868;-63
2022/08/11 16:16:21;;;;;;;;;14.00;13.20;;;;;40.14;18.39;100167.03;5137090;27;8837;-63
2022/08/11 16:18:49;;;;;;;;;10.80;10.80;;;;;40.31;18.35;100151.31;5136683;27;8840;-63